createdAt,value
2023-04-20T00:01:18.494Z,8.38
2023-04-20T00:03:45.356Z,8.82
2023-04-20T00:06:12.287Z,10.07
2023-04-20T00:08:38.859Z,9.35
2023-04-20T00:11:11.618Z,9.60
2023-04-20T00:13:38.209Z,9.20
2023-04-20T00:16:07.965Z,8.45
2023-04-20T00:18:34.523Z,8.10
2023-04-20T00:21:16.875Z,8.43
2023-04-20T00:23:58.543Z,7.57
2023-04-20T00:26:25.523Z,8.68
2023-04-20T00:28:52.643Z,8.00
2023-04-20T00:31:20.021Z,7.78
2023-04-20T00:36:21.989Z,8.00
2023-04-20T00:38:56.980Z,7.62
2023-04-20T00:41:23.611Z,7.40
2023-04-20T00:43:53.840Z,7.05
2023-04-20T00:46:21.552Z,8.40
2023-04-20T00:51:38.740Z,7.45
2023-04-20T00:54:18.759Z,7.97
2023-04-20T00:56:45.595Z,8.27
2023-04-20T00:59:12.528Z,8.38
2023-04-20T01:01:39.344Z,7.78
2023-04-20T01:04:07.914Z,9.77
2023-04-20T01:06:34.590Z,10.27
2023-04-20T01:11:36.659Z,10.13
2023-04-20T01:14:03.220Z,8.70
2023-04-20T01:16:30.753Z,8.27
2023-04-20T01:18:57.569Z,7.50
2023-04-20T01:21:24.182Z,9.10
2023-04-20T01:28:15.675Z,8.80
2023-04-20T01:30:42.352Z,8.93
2023-04-20T01:33:09.014Z,8.85
2023-04-20T01:35:36.364Z,8.18
2023-04-20T01:38:03.102Z,8.30
2023-04-20T01:40:35.217Z,8.70
2023-04-20T01:43:01.772Z,7.70
2023-04-20T01:45:28.351Z,8.90
2023-04-20T01:47:55.017Z,9.95
2023-04-20T01:50:21.596Z,12.13
2023-04-20T01:52:48.134Z,10.23
2023-04-20T01:55:20.293Z,9.77
2023-04-20T01:57:46.927Z,9.88
2023-04-20T02:00:13.873Z,10.02
2023-04-20T02:02:40.615Z,12.63
2023-04-20T02:05:32.057Z,13.62
2023-04-20T02:08:11.364Z,11.20
2023-04-20T02:10:37.975Z,10.43
2023-04-20T02:13:04.538Z,9.88
2023-04-20T02:15:31.121Z,9.82
2023-04-20T02:17:58.109Z,9.38
2023-04-20T02:20:25.000Z,8.90
2023-04-20T02:22:51.599Z,9.52
2023-04-20T02:25:30.115Z,8.15
2023-04-20T02:27:57.049Z,9.32
2023-04-20T02:30:23.656Z,8.88
2023-04-20T02:32:50.245Z,9.27
2023-04-20T02:35:32.446Z,8.60
2023-04-20T02:38:11.116Z,9.25
2023-04-20T02:40:37.814Z,8.90
2023-04-20T02:43:04.478Z,9.65
2023-04-20T02:45:32.447Z,9.65
2023-04-20T02:47:59.053Z,8.82
2023-04-20T02:50:26.558Z,9.73
2023-04-20T02:53:08.509Z,8.90
2023-04-20T02:55:35.191Z,8.65
2023-04-20T02:58:01.796Z,9.60
2023-04-20T03:00:28.391Z,9.15
2023-04-20T03:03:07.343Z,9.48
2023-04-20T03:06:05.188Z,9.73
2023-04-20T03:08:37.618Z,9.07
2023-04-20T03:11:04.153Z,9.40
2023-04-20T03:13:30.934Z,9.52
2023-04-20T03:15:57.776Z,9.60
2023-04-20T03:18:24.408Z,10.10
2023-04-20T03:20:51.078Z,10.60
2023-04-20T03:23:17.624Z,10.32
2023-04-20T03:25:44.764Z,9.68
2023-04-20T03:28:11.304Z,9.30
2023-04-20T03:30:37.880Z,9.25
2023-04-20T03:33:04.564Z,9.65
2023-04-20T03:35:31.575Z,9.88
2023-04-20T03:37:58.169Z,9.73
2023-04-20T03:40:24.947Z,9.32
2023-04-20T03:42:51.555Z,8.38
2023-04-20T03:45:18.089Z,9.07
2023-04-20T03:47:44.880Z,7.82
2023-04-20T03:50:11.521Z,7.75
2023-04-20T03:52:43.329Z,7.95
2023-04-20T03:55:10.023Z,7.75
2023-04-20T03:57:37.507Z,6.82
2023-04-20T04:00:04.814Z,6.53
2023-04-20T04:02:52.780Z,6.30
2023-04-20T04:05:38.379Z,6.68
2023-04-20T04:08:20.237Z,6.78
2023-04-20T04:25:10.461Z,7.55
2023-04-20T04:27:37.669Z,7.70
2023-04-20T04:30:05.281Z,6.97
2023-04-20T04:32:34.594Z,7.40
2023-04-20T04:35:01.439Z,7.47
2023-04-20T04:37:36.784Z,7.37
2023-04-20T04:40:16.261Z,8.02
2023-04-20T04:42:55.701Z,8.02
2023-04-20T04:45:25.318Z,7.90
2023-04-20T04:47:54.037Z,8.27
2023-04-20T04:50:33.480Z,8.48
2023-04-20T04:53:00.047Z,7.87
2023-04-20T04:55:26.662Z,7.93
2023-04-20T04:57:53.239Z,7.78
2023-04-20T05:00:20.230Z,10.27
2023-04-20T05:02:46.923Z,8.98
2023-04-20T05:05:13.753Z,7.82
2023-04-20T05:07:40.458Z,6.20
2023-04-20T05:10:08.134Z,6.05
2023-04-20T05:12:34.765Z,6.18
2023-04-20T05:15:01.440Z,5.70
2023-04-20T05:17:28.146Z,5.75
2023-04-20T05:19:54.818Z,5.95
2023-04-20T05:22:21.403Z,6.07
2023-04-20T05:24:47.981Z,9.73
2023-04-20T05:27:14.671Z,10.40
2023-04-20T05:29:41.225Z,8.95
2023-04-20T05:32:08.285Z,7.75
2023-04-20T05:34:35.046Z,6.03
2023-04-20T05:37:04.647Z,6.03
2023-04-20T05:39:34.697Z,5.45
2023-04-20T05:42:01.770Z,4.75
2023-04-20T05:44:28.328Z,5.75
2023-04-20T05:46:54.917Z,4.90
2023-04-20T05:49:21.704Z,5.70
2023-04-20T05:51:48.303Z,6.10
2023-04-20T05:54:14.878Z,5.85
2023-04-20T05:56:41.493Z,5.72
2023-04-20T05:59:08.832Z,5.93
2023-04-20T06:01:35.584Z,6.75
2023-04-20T06:04:17.580Z,6.78
2023-04-20T06:06:44.549Z,6.53
2023-04-20T06:09:11.381Z,7.25
2023-04-20T06:11:37.965Z,7.70
2023-04-20T06:14:04.519Z,7.28
2023-04-20T06:16:31.205Z,6.80
2023-04-20T06:18:57.891Z,7.05
2023-04-20T06:21:24.675Z,7.50
2023-04-20T06:23:51.273Z,7.05
2023-04-20T06:26:17.845Z,7.03
2023-04-20T06:31:20.532Z,7.30
2023-04-20T06:33:47.349Z,7.37
2023-04-20T06:36:14.440Z,7.03
2023-04-20T06:38:41.153Z,6.40
2023-04-20T06:41:07.744Z,6.40
2023-04-20T06:47:01.116Z,6.53
2023-04-20T06:49:27.772Z,6.00
2023-04-20T06:51:54.511Z,6.43
2023-04-20T06:54:21.137Z,6.03
2023-04-20T06:56:48.429Z,5.65
2023-04-20T06:59:18.229Z,6.28
2023-04-20T07:01:45.157Z,5.22
2023-04-20T07:04:12.163Z,5.30
2023-04-20T07:06:39.171Z,6.30
2023-04-20T07:09:06.052Z,6.10
2023-04-20T07:11:32.635Z,6.37
2023-04-20T07:13:59.239Z,5.03
2023-04-20T07:16:25.979Z,6.07
2023-04-20T07:18:52.574Z,6.05
2023-04-20T07:21:19.132Z,5.47
2023-04-20T07:23:45.755Z,5.87
2023-04-20T07:26:12.394Z,6.28
2023-04-20T07:28:38.956Z,5.43
2023-04-20T07:31:05.995Z,5.20
2023-04-20T07:33:40.012Z,5.10
2023-04-20T07:36:07.118Z,5.12
2023-04-20T07:38:33.672Z,5.57
2023-04-20T07:41:00.402Z,5.37
2023-04-20T07:43:52.142Z,5.50
2023-04-20T07:46:37.346Z,5.62
2023-04-20T07:49:04.236Z,5.55
2023-04-20T07:51:32.376Z,5.87
2023-04-20T07:53:58.943Z,5.90
2023-04-20T07:56:26.081Z,4.85
2023-04-20T07:58:52.666Z,5.25
2023-04-20T08:01:23.721Z,5.15
2023-04-20T08:03:50.545Z,4.80
2023-04-20T08:06:17.658Z,5.40
2023-04-20T08:08:44.284Z,4.60
2023-04-20T08:11:12.574Z,4.53
2023-04-20T08:13:40.091Z,4.90
2023-04-20T08:18:55.205Z,4.32
2023-04-20T08:21:25.460Z,4.82
2023-04-20T08:23:52.764Z,4.30
2023-04-20T08:26:19.331Z,4.57
2023-04-20T08:28:45.876Z,4.87
2023-04-20T08:31:55.781Z,5.35
2023-04-20T08:35:09.495Z,4.43
2023-04-20T08:40:17.120Z,4.43
2023-04-20T08:42:43.714Z,4.87
2023-04-20T08:45:10.405Z,4.90
2023-04-20T08:47:37.247Z,4.53
2023-04-20T08:50:04.537Z,5.60
2023-04-20T08:52:32.628Z,4.60
2023-04-20T08:54:59.205Z,4.87
2023-04-20T08:57:26.306Z,4.78
2023-04-20T08:59:53.366Z,4.50
2023-04-20T09:02:20.156Z,4.20
2023-04-20T09:04:49.321Z,4.18
2023-04-20T09:07:21.056Z,4.25
2023-04-20T09:09:57.995Z,4.45
2023-04-20T09:12:25.090Z,4.37
2023-04-20T09:14:52.453Z,4.25
2023-04-20T09:17:32.094Z,4.43
2023-04-20T09:19:58.647Z,4.78
2023-04-20T09:22:38.531Z,4.37
2023-04-20T09:25:17.771Z,4.43
2023-04-20T09:27:55.916Z,4.22
2023-04-20T09:30:22.827Z,4.22
2023-04-20T09:32:49.581Z,4.15
2023-04-20T09:35:23.961Z,4.18
2023-04-20T09:38:18.113Z,3.80
2023-04-20T09:41:12.555Z,3.80
2023-04-20T09:43:40.815Z,3.30
2023-04-20T09:46:07.901Z,4.20
2023-04-20T09:48:35.595Z,3.72
2023-04-20T09:51:03.201Z,3.80
2023-04-20T09:53:30.841Z,3.55
2023-04-20T09:56:17.561Z,3.90
2023-04-20T09:58:46.676Z,4.15
2023-04-20T10:01:13.769Z,4.22
2023-04-20T10:03:44.182Z,3.92
2023-04-20T10:06:25.321Z,4.15
2023-04-20T10:08:53.157Z,4.12
2023-04-20T10:13:55.913Z,3.92
2023-04-20T10:16:23.171Z,3.78
2023-04-20T10:19:01.899Z,3.53
2023-04-20T10:21:30.028Z,3.58
2023-04-20T10:23:58.916Z,4.12
2023-04-20T10:26:45.494Z,3.72
2023-04-20T10:29:36.989Z,3.55
2023-04-20T10:32:08.586Z,3.67
2023-04-20T10:34:36.868Z,4.18
2023-04-20T10:37:11.121Z,3.78
2023-04-20T10:39:45.124Z,4.53
2023-04-20T10:42:11.874Z,4.18
2023-04-20T10:44:52.024Z,3.78
2023-04-20T10:47:27.818Z,3.53
2023-04-20T10:49:54.416Z,3.83
2023-04-20T10:52:37.911Z,3.25
2023-04-20T10:55:06.958Z,3.87
2023-04-20T10:57:33.949Z,3.37
2023-04-20T11:00:00.591Z,3.70
2023-04-20T11:02:28.305Z,3.53
2023-04-20T11:05:00.911Z,3.80
2023-04-20T11:07:27.662Z,3.55
2023-04-20T11:09:58.000Z,3.67
2023-04-20T11:12:24.614Z,3.55
2023-04-20T11:14:53.485Z,4.00
2023-04-20T11:17:20.740Z,3.47
2023-04-20T11:19:47.427Z,3.65
2023-04-20T11:22:23.415Z,4.15
2023-04-20T11:24:50.325Z,3.30
2023-04-20T11:27:23.843Z,3.03
2023-04-20T11:30:05.454Z,3.72
2023-04-20T11:32:38.377Z,3.00
2023-04-20T11:35:09.272Z,3.60
2023-04-20T11:37:57.623Z,3.28
2023-04-20T11:40:24.614Z,3.55
2023-04-20T11:42:52.316Z,3.00
2023-04-20T11:45:18.900Z,3.25
2023-04-20T11:47:47.347Z,3.40
2023-04-20T11:50:14.425Z,3.08
2023-04-20T11:52:40.985Z,3.20
2023-04-20T11:55:08.000Z,3.15
2023-04-20T11:57:34.791Z,3.37
2023-04-20T12:00:01.429Z,3.10
2023-04-20T12:02:28.200Z,3.40
2023-04-20T12:04:55.012Z,2.85
2023-04-20T12:07:22.406Z,2.70
2023-04-20T12:09:49.466Z,3.10
2023-04-20T12:12:16.019Z,2.40
2023-04-20T12:14:42.558Z,2.45
2023-04-20T12:17:09.351Z,2.45
2023-04-20T12:19:35.902Z,2.00
2023-04-20T12:22:02.706Z,2.60
2023-04-20T12:24:29.635Z,2.75
2023-04-20T12:26:58.201Z,2.85
2023-04-20T12:29:24.910Z,2.80
2023-04-20T12:31:51.575Z,2.78
2023-04-20T12:34:18.629Z,2.62
2023-04-20T12:36:45.541Z,2.85
2023-04-20T12:39:12.135Z,2.72
2023-04-20T12:41:38.674Z,2.42
2023-04-20T12:44:07.610Z,2.17
2023-04-20T12:46:35.380Z,2.28
2023-04-20T12:49:02.192Z,1.98
2023-04-20T12:51:28.784Z,2.25
2023-04-20T12:53:55.497Z,2.42
2023-04-20T12:56:22.087Z,2.58
2023-04-20T12:58:49.060Z,2.55
2023-04-20T13:01:17.327Z,2.60
2023-04-20T13:03:46.314Z,2.87
2023-04-20T13:06:14.422Z,2.67
2023-04-20T13:08:41.385Z,2.83
2023-04-20T13:11:08.540Z,2.67
2023-04-20T13:13:35.090Z,2.40
2023-04-20T13:16:02.044Z,2.92
2023-04-20T13:18:28.762Z,2.47
2023-04-20T13:20:55.413Z,2.65
2023-04-20T13:23:21.954Z,2.55
2023-04-20T13:25:48.646Z,2.45
2023-04-20T13:28:15.562Z,2.15
2023-04-20T13:30:42.166Z,2.35
2023-04-20T13:33:09.076Z,2.90
2023-04-20T13:35:36.393Z,2.45
2023-04-20T13:38:04.989Z,2.55
2023-04-20T13:40:31.638Z,2.37
2023-04-20T13:42:58.425Z,2.33
2023-04-20T13:45:25.364Z,2.03
2023-04-20T13:47:51.985Z,2.28
2023-04-20T13:50:18.648Z,2.10
2023-04-20T13:52:45.297Z,2.15
2023-04-20T13:55:11.918Z,2.45
2023-04-20T13:57:38.475Z,2.40
2023-04-20T14:00:05.822Z,2.42
2023-04-20T14:02:32.999Z,2.50
2023-04-20T14:04:59.683Z,2.50
2023-04-20T14:07:26.767Z,2.00
2023-04-20T14:09:56.431Z,2.12
2023-04-20T14:12:23.205Z,2.30
2023-04-20T14:14:49.818Z,2.75
2023-04-20T14:17:16.615Z,2.40
2023-04-20T14:19:43.144Z,2.47
2023-04-20T14:22:09.727Z,2.50
2023-04-20T14:24:36.374Z,2.40
2023-04-20T14:27:03.575Z,2.30
2023-04-20T14:29:30.298Z,2.28
2023-04-20T14:31:56.976Z,2.20
2023-04-20T14:34:23.607Z,2.10
2023-04-20T14:36:50.358Z,2.25
2023-04-20T14:39:20.336Z,2.22
2023-04-20T14:41:47.010Z,2.72
2023-04-20T14:44:13.591Z,2.15
2023-04-20T14:46:42.453Z,2.50
2023-04-20T14:49:10.247Z,2.33
2023-04-20T14:51:36.817Z,2.60
2023-04-20T14:54:03.680Z,2.22
2023-04-20T14:56:30.426Z,2.70
2023-04-20T14:58:59.469Z,2.45
2023-04-20T15:01:26.220Z,2.12
2023-04-20T15:03:53.053Z,2.17
2023-04-20T15:06:19.842Z,2.30
2023-04-20T15:08:46.634Z,2.20
2023-04-20T15:11:13.329Z,2.25
2023-04-20T15:13:41.278Z,2.28
2023-04-20T15:16:10.677Z,2.50
2023-04-20T15:18:37.266Z,2.37
2023-04-20T15:21:04.169Z,2.28
2023-04-20T15:23:31.086Z,2.10
2023-04-20T15:25:57.677Z,2.08
2023-04-20T15:28:24.210Z,2.28
2023-04-20T15:30:50.874Z,1.77
2023-04-20T15:33:17.574Z,2.20
2023-04-20T15:35:44.232Z,2.10
2023-04-20T15:38:10.890Z,2.28
2023-04-20T15:40:38.813Z,2.35
2023-04-20T15:43:06.096Z,2.20
2023-04-20T15:45:32.912Z,1.87
2023-04-20T15:48:00.936Z,2.35
2023-04-20T15:50:27.652Z,2.40
2023-04-20T15:52:54.800Z,2.00
2023-04-20T15:55:22.229Z,2.20
2023-04-20T15:57:48.803Z,2.30
2023-04-20T16:00:15.834Z,2.30
2023-04-20T16:02:42.515Z,2.10
2023-04-20T16:05:12.198Z,2.30
2023-04-20T16:07:38.826Z,2.10
2023-04-20T16:10:07.234Z,2.10
2023-04-20T16:12:33.853Z,1.95
2023-04-20T16:15:02.129Z,1.90
2023-04-20T16:17:29.329Z,2.20
2023-04-20T16:19:56.006Z,2.17
2023-04-20T16:22:22.721Z,2.20
2023-04-20T16:24:49.289Z,1.92
2023-04-20T16:27:16.107Z,2.30
2023-04-20T16:29:43.086Z,2.03
2023-04-20T16:32:09.818Z,2.17
2023-04-20T16:34:36.395Z,2.00
2023-04-20T16:37:02.958Z,2.35
2023-04-20T16:39:29.531Z,2.25
2023-04-20T16:41:57.209Z,2.45
2023-04-20T16:44:23.825Z,1.90
2023-04-20T16:46:51.391Z,1.80
2023-04-20T16:49:18.207Z,1.70
2023-04-20T16:51:44.883Z,1.95
2023-04-20T16:54:12.807Z,2.15
2023-04-20T16:56:39.965Z,2.30
2023-04-20T16:59:06.691Z,2.05
2023-04-20T17:01:33.373Z,1.80
2023-04-20T17:04:00.105Z,1.83
2023-04-20T17:06:27.467Z,2.30
2023-04-20T17:08:55.993Z,2.08
2023-04-20T17:11:22.521Z,2.00
2023-04-20T17:13:49.203Z,2.20
2023-04-20T17:16:15.840Z,2.22
2023-04-20T17:18:42.464Z,2.00
2023-04-20T17:21:09.124Z,2.60
2023-04-20T17:23:35.988Z,2.28
2023-04-20T17:26:03.545Z,2.08
2023-04-20T17:28:30.565Z,2.42
2023-04-20T17:30:57.148Z,2.50
2023-04-20T17:33:23.731Z,2.65
2023-04-20T17:35:50.449Z,2.40
2023-04-20T17:38:16.997Z,2.50
2023-04-20T17:40:43.738Z,2.20
2023-04-20T17:43:10.364Z,2.45
2023-04-20T17:45:37.446Z,2.45
2023-04-20T17:48:04.358Z,2.70
2023-04-20T17:50:31.107Z,2.70
2023-04-20T17:52:57.705Z,2.67
2023-04-20T17:55:24.280Z,2.92
2023-04-20T17:57:51.028Z,2.92
2023-04-20T18:00:18.677Z,2.47
2023-04-20T18:02:45.409Z,2.60
2023-04-20T18:05:12.126Z,2.67
2023-04-20T18:07:38.715Z,2.70
2023-04-20T18:10:06.385Z,2.58
2023-04-20T18:12:33.628Z,2.90
2023-04-20T18:15:00.771Z,2.40
2023-04-20T18:17:27.436Z,2.83
2023-04-20T18:19:53.984Z,2.78
2023-04-20T18:22:20.607Z,2.67
2023-04-20T18:24:47.174Z,2.55
2023-04-20T18:27:13.764Z,2.30
2023-04-20T18:29:40.461Z,2.83
2023-04-20T18:32:07.086Z,2.37
2023-04-20T18:34:33.831Z,2.97
2023-04-20T18:37:00.482Z,2.70
2023-04-20T18:39:27.141Z,2.80
2023-04-20T18:41:53.720Z,2.75
2023-04-20T18:44:20.672Z,2.40
2023-04-20T18:46:47.544Z,2.70
2023-04-20T18:49:14.152Z,2.55
2023-04-20T18:51:40.985Z,2.67
2023-04-20T18:54:07.628Z,3.10
2023-04-20T18:56:34.220Z,3.15
2023-04-20T18:59:01.626Z,2.95
2023-04-20T19:01:28.632Z,2.97
2023-04-20T19:03:55.636Z,2.97
2023-04-20T19:06:22.522Z,2.83
2023-04-20T19:08:50.905Z,2.90
2023-04-20T19:11:17.507Z,2.87
2023-04-20T19:13:45.415Z,2.87
2023-04-20T19:16:12.649Z,3.25
2023-04-20T19:18:39.680Z,2.70
2023-04-20T19:21:06.521Z,2.70
2023-04-20T19:23:33.334Z,2.72
2023-04-20T19:25:59.992Z,2.83
2023-04-20T19:28:26.586Z,3.30
2023-04-20T19:33:28.481Z,3.17
2023-04-20T19:36:19.612Z,3.40
2023-04-20T19:39:11.399Z,3.40
2023-04-20T19:41:38.438Z,2.95
2023-04-20T19:44:06.328Z,3.20
2023-04-20T19:47:49.207Z,3.10
2023-04-20T19:50:49.880Z,3.55
2023-04-20T19:53:16.587Z,3.50
2023-04-20T19:55:43.161Z,3.40
2023-04-20T19:58:10.840Z,3.30
2023-04-20T20:00:38.818Z,3.10
2023-04-20T20:03:08.074Z,4.03
2023-04-20T20:22:01.538Z,3.55
2023-04-20T20:24:28.118Z,4.15
2023-04-20T20:26:54.745Z,3.42
2023-04-20T20:29:22.899Z,3.35
2023-04-20T20:31:49.562Z,3.08
2023-04-20T20:34:16.507Z,3.22
2023-04-20T20:36:53.293Z,3.37
2023-04-20T20:39:20.064Z,3.05
2023-04-20T20:41:47.659Z,3.25
2023-04-20T20:44:14.622Z,3.33
2023-04-20T20:47:34.202Z,3.40
2023-04-20T20:50:28.658Z,3.22
2023-04-20T20:52:55.424Z,3.67
2023-04-20T20:55:22.174Z,3.72
2023-04-20T20:57:48.796Z,3.70
2023-04-20T21:00:16.323Z,3.12
2023-04-20T21:02:43.231Z,3.72
2023-04-20T21:05:10.543Z,4.18
2023-04-20T21:07:37.269Z,3.53
2023-04-20T21:10:04.217Z,3.87
2023-04-20T21:12:30.884Z,3.37
2023-04-20T21:14:57.462Z,3.40
2023-04-20T21:17:26.811Z,3.70
2023-04-20T21:22:30.197Z,3.60
2023-04-20T21:24:56.820Z,3.67
2023-04-20T21:27:24.032Z,3.15
2023-04-20T21:29:50.625Z,3.33
2023-04-20T21:32:17.316Z,3.70
2023-04-20T21:34:59.231Z,3.33
2023-04-20T21:37:53.805Z,4.50
2023-04-20T21:40:30.566Z,3.50
2023-04-20T21:42:57.102Z,3.65
2023-04-20T21:45:23.750Z,3.90
2023-04-20T21:47:50.333Z,3.65
2023-04-20T21:50:17.016Z,3.58
2023-04-20T21:52:43.602Z,3.67
2023-04-20T21:55:10.532Z,3.72
2023-04-20T21:57:37.067Z,3.53
2023-04-20T22:00:04.236Z,4.25
2023-04-20T22:02:30.899Z,3.95
2023-04-20T22:04:57.989Z,4.20
2023-04-20T22:07:26.645Z,4.40
2023-04-20T22:09:53.350Z,4.18
2023-04-20T22:12:32.187Z,4.37
2023-04-20T22:15:06.938Z,3.75
2023-04-20T22:17:33.525Z,3.47
2023-04-20T22:20:00.222Z,3.40
2023-04-20T22:22:26.814Z,3.50
2023-04-20T22:24:53.400Z,4.07
2023-04-20T22:27:20.228Z,3.22
2023-04-20T22:29:46.785Z,3.55
2023-04-20T22:32:13.338Z,3.70
2023-04-20T22:34:39.876Z,3.10
2023-04-20T22:37:08.609Z,3.80
2023-04-20T22:39:35.659Z,4.00
2023-04-20T22:42:02.291Z,3.90
2023-04-20T22:44:28.842Z,3.72
2023-04-20T22:46:55.635Z,3.65
2023-04-20T22:49:23.542Z,3.30
2023-04-20T22:51:50.726Z,3.83
2023-04-20T22:54:30.659Z,3.90
2023-04-20T22:56:58.795Z,3.42
2023-04-20T22:59:25.411Z,3.60
2023-04-20T23:01:52.152Z,4.03
2023-04-20T23:04:40.169Z,4.00
2023-04-20T23:10:29.530Z,3.67
2023-04-20T23:12:56.199Z,3.55
2023-04-20T23:15:22.801Z,3.50
2023-04-20T23:17:50.694Z,3.50
2023-04-20T23:20:17.397Z,3.80
2023-04-20T23:22:44.060Z,3.95
2023-04-20T23:28:06.574Z,3.25
2023-04-20T23:30:33.246Z,4.22
2023-04-20T23:33:00.043Z,3.60
2023-04-20T23:36:01.012Z,3.58
2023-04-20T23:38:45.660Z,3.53
2023-04-20T23:41:14.594Z,4.10
2023-04-20T23:43:41.547Z,3.78
2023-04-20T23:46:08.745Z,3.97
2023-04-20T23:48:35.477Z,3.50
2023-04-20T23:51:02.272Z,3.90
2023-04-20T23:56:04.530Z,3.70
2023-04-20T23:58:31.499Z,3.25
